createdAt,value
2017-12-29T00:00:51.348Z,82.47
2017-12-29T00:01:51.243Z,82.66
2017-12-29T00:02:51.164Z,82.66
2017-12-29T00:03:51.075Z,82.09
2017-12-29T00:04:50.979Z,81.99
2017-12-29T00:05:50.883Z,82.09
2017-12-29T00:06:50.791Z,82.09
2017-12-29T00:07:50.696Z,82.47
2017-12-29T00:08:50.619Z,82.85
2017-12-29T00:09:50.523Z,82.66
2017-12-29T00:10:50.430Z,82.56
2017-12-29T00:11:50.343Z,82.94
2017-12-29T00:12:50.245Z,82.94
2017-12-29T00:13:50.150Z,83.61
2017-12-29T00:14:50.063Z,82.94
2017-12-29T00:15:49.972Z,82.85
2017-12-29T00:16:49.877Z,82.75
2017-12-29T00:17:49.801Z,82.37
2017-12-29T00:18:49.696Z,82.28
2017-12-29T00:19:49.606Z,82.47
2017-12-29T00:20:49.524Z,81.99
2017-12-29T00:21:49.432Z,82.09
2017-12-29T00:22:49.330Z,82.18
2017-12-29T00:23:49.240Z,81.81
2017-12-29T00:24:49.153Z,81.43
2017-12-29T00:25:49.067Z,82.28
2017-12-29T00:26:48.974Z,82.09
2017-12-29T00:27:48.880Z,82.18
2017-12-29T00:28:48.785Z,81.71
2017-12-29T00:29:48.700Z,81.33
2017-12-29T00:30:48.612Z,80.67
2017-12-29T00:31:48.518Z,81.24
2017-12-29T00:32:48.422Z,81.14
2017-12-29T00:33:48.339Z,80.76
2017-12-29T00:34:48.250Z,80.38
2017-12-29T00:35:48.157Z,80.29
2017-12-29T00:36:48.066Z,80.10
2017-12-29T00:37:47.977Z,80.29
2017-12-29T00:38:47.911Z,81.14
2017-12-29T00:39:47.793Z,80.48
2017-12-29T00:40:47.703Z,80.57
2017-12-29T00:41:47.611Z,80.04
2017-12-29T00:42:47.533Z,80.04
2017-12-29T00:43:47.440Z,79.76
2017-12-29T00:44:47.351Z,80.04
2017-12-29T00:45:47.255Z,79.38
2017-12-29T00:46:47.164Z,79.76
2017-12-29T00:47:47.081Z,79.85
2017-12-29T00:48:46.990Z,79.76
2017-12-29T00:49:46.894Z,79.95
2017-12-29T00:50:46.812Z,79.85
2017-12-29T00:51:46.718Z,79.19
2017-12-29T00:52:46.633Z,79.82
2017-12-29T00:53:46.537Z,79.06
2017-12-29T00:54:46.450Z,79.63
2017-12-29T00:55:46.445Z,79.47
2017-12-29T00:56:46.271Z,79.25
2017-12-29T00:57:46.175Z,79.91
2017-12-29T00:58:46.086Z,79.34
2017-12-29T00:59:46.007Z,79.47
2017-12-29T01:00:45.939Z,79.76
2017-12-29T01:01:45.833Z,79.06
2017-12-29T01:02:45.727Z,78.62
2017-12-29T01:03:45.642Z,78.43
2017-12-29T01:04:45.541Z,78.11
2017-12-29T01:05:45.459Z,78.20
2017-12-29T01:06:45.366Z,77.83
2017-12-29T01:07:45.274Z,77.73
2017-12-29T01:08:45.199Z,78.49
2017-12-29T01:09:45.099Z,78.11
2017-12-29T01:10:45.008Z,78.02
2017-12-29T01:11:44.912Z,78.39
2017-12-29T01:12:44.825Z,78.39
2017-12-29T01:13:44.746Z,78.30
2017-12-29T01:14:44.645Z,78.67
2017-12-29T01:15:44.561Z,78.67
2017-12-29T01:16:44.460Z,79.82
2017-12-29T01:17:44.373Z,79.91
2017-12-29T01:18:44.282Z,79.44
2017-12-29T01:19:44.189Z,78.96
2017-12-29T01:20:44.094Z,79.15
2017-12-29T01:21:44.010Z,78.58
2017-12-29T01:22:43.916Z,79.25
2017-12-29T01:23:43.822Z,78.67
2017-12-29T01:24:43.735Z,79.44
2017-12-29T01:25:43.648Z,79.91
2017-12-29T01:26:43.551Z,79.72
2017-12-29T01:27:43.461Z,79.53
2017-12-29T01:28:43.374Z,79.72
2017-12-29T01:29:43.284Z,79.44
2017-12-29T01:30:43.191Z,79.82
2017-12-29T01:31:43.096Z,78.96
2017-12-29T01:32:43.008Z,79.82
2017-12-29T01:33:42.920Z,79.91
2017-12-29T01:34:42.862Z,80.29
2017-12-29T01:35:42.735Z,80.95
2017-12-29T01:36:42.657Z,80.38
2017-12-29T01:37:42.556Z,80.00
2017-12-29T01:38:42.463Z,79.91
2017-12-29T01:39:42.380Z,79.25
2017-12-29T01:40:42.288Z,79.91
2017-12-29T01:41:42.193Z,79.72
2017-12-29T01:42:42.101Z,80.04
2017-12-29T01:43:42.018Z,79.25
2017-12-29T01:44:41.925Z,79.91
2017-12-29T01:45:41.836Z,79.15
2017-12-29T01:46:41.750Z,79.53
2017-12-29T01:47:41.657Z,79.63
2017-12-29T01:48:41.571Z,79.91
2017-12-29T01:49:41.472Z,79.44
2017-12-29T01:50:41.476Z,80.00
2017-12-29T01:51:41.291Z,79.91
2017-12-29T01:52:41.200Z,79.91
2017-12-29T01:53:41.110Z,79.91
2017-12-29T01:54:41.021Z,79.53
2017-12-29T01:55:40.936Z,79.82
2017-12-29T01:56:40.834Z,79.63
2017-12-29T01:57:40.750Z,79.91
2017-12-29T01:58:40.657Z,79.53
2017-12-29T01:59:40.567Z,79.34
2017-12-29T02:00:40.474Z,79.53
2017-12-29T02:01:40.379Z,80.10
2017-12-29T02:02:40.298Z,79.15
2017-12-29T02:03:40.202Z,79.34
2017-12-29T02:04:40.112Z,79.82
2017-12-29T02:05:40.031Z,79.15
2017-12-29T02:06:39.938Z,79.25
2017-12-29T02:07:39.843Z,79.25
2017-12-29T02:08:39.752Z,79.25
2017-12-29T02:09:39.660Z,80.10
2017-12-29T02:10:39.571Z,79.53
2017-12-29T02:11:39.483Z,79.72
2017-12-29T02:12:39.390Z,79.72
2017-12-29T02:13:39.303Z,79.82
2017-12-29T02:14:39.218Z,79.34
2017-12-29T02:15:39.127Z,80.00
2017-12-29T02:16:39.031Z,79.34
2017-12-29T02:17:38.950Z,78.67
2017-12-29T02:18:38.846Z,78.77
2017-12-29T02:19:38.759Z,77.92
2017-12-29T02:20:38.664Z,78.58
2017-12-29T02:21:38.577Z,78.67
2017-12-29T02:22:38.491Z,78.49
2017-12-29T02:23:38.394Z,78.39
2017-12-29T02:24:38.303Z,78.11
2017-12-29T02:25:38.218Z,78.11
2017-12-29T02:26:38.127Z,78.39
2017-12-29T02:27:38.036Z,79.15
2017-12-29T02:28:37.944Z,79.44
2017-12-29T02:29:37.854Z,78.49
2017-12-29T02:30:37.756Z,78.02
2017-12-29T02:31:37.689Z,77.45
2017-12-29T02:32:37.576Z,77.06
2017-12-29T02:33:37.495Z,77.64
2017-12-29T02:34:37.398Z,78.11
2017-12-29T02:35:37.309Z,78.49
2017-12-29T02:36:37.228Z,78.39
2017-12-29T02:37:37.126Z,77.54
2017-12-29T02:38:37.042Z,77.64
2017-12-29T02:39:36.944Z,78.77
2017-12-29T02:40:36.850Z,78.67
2017-12-29T02:41:36.762Z,78.49
2017-12-29T02:42:36.668Z,77.92
2017-12-29T02:43:36.582Z,77.92
2017-12-29T02:44:36.488Z,77.16
2017-12-29T02:45:36.396Z,77.25
2017-12-29T02:46:36.310Z,77.54
2017-12-29T02:47:36.238Z,77.45
2017-12-29T02:48:36.127Z,77.35
2017-12-29T02:49:36.047Z,78.39
2017-12-29T02:50:35.950Z,78.39
2017-12-29T02:51:35.852Z,77.83
2017-12-29T02:52:35.786Z,77.83
2017-12-29T02:53:35.673Z,77.54
2017-12-29T02:54:35.588Z,77.16
2017-12-29T02:55:35.493Z,77.06
2017-12-29T02:56:35.426Z,78.11
2017-12-29T02:57:35.313Z,78.02
2017-12-29T02:58:35.219Z,77.64
2017-12-29T02:59:35.125Z,77.45
2017-12-29T03:00:35.036Z,77.35
2017-12-29T03:01:34.949Z,77.54
2017-12-29T03:02:34.858Z,77.25
2017-12-29T03:03:34.768Z,77.16
2017-12-29T03:04:34.672Z,77.83
2017-12-29T03:05:34.581Z,76.97
2017-12-29T03:06:34.496Z,77.16
2017-12-29T03:07:34.424Z,77.16
2017-12-29T03:08:34.320Z,77.06
2017-12-29T03:09:34.223Z,76.78
2017-12-29T03:10:34.133Z,76.78
2017-12-29T03:11:34.041Z,76.82
2017-12-29T03:12:34.008Z,76.50
2017-12-29T03:13:33.878Z,76.50
2017-12-29T03:14:33.771Z,76.68
2017-12-29T03:15:33.678Z,77.25
2017-12-29T03:16:33.590Z,77.16
2017-12-29T03:17:33.497Z,77.35
2017-12-29T03:18:33.404Z,76.82
2017-12-29T03:19:33.317Z,76.40
2017-12-29T03:20:33.226Z,76.97
2017-12-29T03:21:33.140Z,77.01
2017-12-29T03:22:33.050Z,76.68
2017-12-29T03:23:32.957Z,76.12
2017-12-29T03:24:32.864Z,76.21
2017-12-29T03:25:32.776Z,76.68
2017-12-29T03:26:32.690Z,75.96
2017-12-29T03:27:32.615Z,75.93
2017-12-29T03:28:32.528Z,76.03
2017-12-29T03:29:32.423Z,76.31
2017-12-29T03:30:32.321Z,76.31
2017-12-29T03:31:32.233Z,75.93
2017-12-29T03:32:32.144Z,76.15
2017-12-29T03:33:32.056Z,75.31
2017-12-29T03:34:31.959Z,74.41
2017-12-29T03:35:31.871Z,74.79
2017-12-29T03:36:31.779Z,75.21
2017-12-29T03:37:31.687Z,74.69
2017-12-29T03:38:31.600Z,74.60
2017-12-29T03:39:31.512Z,74.60
2017-12-29T03:40:31.419Z,74.73
2017-12-29T03:41:31.331Z,74.73
2017-12-29T03:42:31.244Z,73.97
2017-12-29T03:43:31.156Z,73.60
2017-12-29T03:44:31.064Z,73.41
2017-12-29T03:45:30.968Z,74.03
2017-12-29T03:46:30.878Z,73.69
2017-12-29T03:47:30.823Z,73.65
2017-12-29T03:48:30.701Z,73.97
2017-12-29T03:49:30.642Z,73.22
2017-12-29T03:50:30.526Z,72.93
2017-12-29T03:51:30.426Z,72.71
2017-12-29T03:52:30.335Z,72.36
2017-12-29T03:53:30.246Z,72.33
2017-12-29T03:54:30.156Z,72.71
2017-12-29T03:55:30.065Z,72.84
2017-12-29T03:56:29.982Z,72.55
2017-12-29T03:57:29.882Z,72.64
2017-12-29T03:58:29.797Z,72.36
2017-12-29T03:59:29.702Z,72.17
2017-12-29T04:00:29.613Z,72.27
2017-12-29T04:01:29.521Z,72.36
2017-12-29T04:02:29.437Z,72.45
2017-12-29T04:03:29.345Z,72.36
2017-12-29T04:04:29.257Z,72.84
2017-12-29T04:05:29.160Z,72.17
2017-12-29T04:06:29.076Z,72.17
2017-12-29T04:07:29.000Z,72.36
2017-12-29T04:08:28.898Z,71.80
2017-12-29T04:09:28.808Z,72.08
2017-12-29T04:10:28.712Z,72.36
2017-12-29T04:11:28.648Z,71.70
2017-12-29T04:12:28.533Z,72.08
2017-12-29T04:13:28.443Z,71.89
2017-12-29T04:14:28.372Z,71.98
2017-12-29T04:15:28.262Z,72.17
2017-12-29T04:16:28.172Z,72.17
2017-12-29T04:17:28.084Z,71.51
2017-12-29T04:18:28.018Z,72.36
2017-12-29T04:19:27.910Z,71.98
2017-12-29T04:20:27.821Z,72.08
2017-12-29T04:21:27.730Z,72.27
2017-12-29T04:22:27.636Z,71.70
2017-12-29T04:23:27.550Z,71.80
2017-12-29T04:24:27.478Z,71.98
2017-12-29T04:25:27.364Z,71.60
2017-12-29T04:26:27.278Z,71.89
2017-12-29T04:27:27.188Z,71.60
2017-12-29T04:28:27.101Z,71.32
2017-12-29T04:29:27.006Z,72.17
2017-12-29T04:30:26.944Z,72.33
2017-12-29T04:31:26.827Z,72.71
2017-12-29T04:32:26.734Z,72.71
2017-12-29T04:33:26.648Z,72.27
2017-12-29T04:34:26.556Z,71.98
2017-12-29T04:35:26.463Z,71.32
2017-12-29T04:36:26.386Z,71.66
2017-12-29T04:37:26.288Z,72.04
2017-12-29T04:38:26.202Z,72.27
2017-12-29T04:39:26.114Z,71.98
2017-12-29T04:40:26.014Z,71.89
2017-12-29T04:41:25.924Z,71.70
2017-12-29T04:42:25.832Z,71.22
2017-12-29T04:43:25.746Z,71.60
2017-12-29T04:44:25.653Z,71.51
2017-12-29T04:45:25.576Z,71.00
2017-12-29T04:46:25.469Z,71.95
2017-12-29T04:47:25.392Z,72.52
2017-12-29T04:48:25.303Z,72.71
2017-12-29T04:49:25.203Z,72.71
2017-12-29T04:50:25.110Z,72.71
2017-12-29T04:51:25.018Z,72.42
2017-12-29T04:52:24.925Z,71.76
2017-12-29T04:53:24.839Z,72.89
2017-12-29T04:54:24.746Z,72.89
2017-12-29T04:55:24.654Z,71.85
2017-12-29T04:56:24.568Z,71.80
2017-12-29T04:57:24.483Z,71.70
2017-12-29T04:58:24.392Z,71.70
2017-12-29T04:59:24.292Z,71.41
2017-12-29T05:00:24.226Z,71.60
2017-12-29T05:01:24.111Z,71.03
2017-12-29T05:02:24.023Z,71.22
2017-12-29T05:03:23.938Z,71.03
2017-12-29T05:04:23.841Z,71.22
2017-12-29T05:05:23.762Z,71.22
2017-12-29T05:06:23.664Z,71.03
2017-12-29T05:07:23.588Z,71.70
2017-12-29T05:08:23.484Z,71.03
2017-12-29T05:09:23.393Z,71.60
2017-12-29T05:10:23.298Z,71.13
2017-12-29T05:11:23.214Z,71.98
2017-12-29T05:12:23.129Z,71.80
2017-12-29T05:13:23.028Z,71.80
2017-12-29T05:14:22.941Z,71.80
2017-12-29T05:15:22.851Z,72.45
2017-12-29T05:16:22.765Z,71.70
2017-12-29T05:17:22.672Z,71.80
2017-12-29T05:18:22.579Z,72.52
2017-12-29T05:19:22.493Z,72.17
2017-12-29T05:20:22.404Z,72.17
2017-12-29T05:21:22.319Z,72.08
2017-12-29T05:22:22.217Z,72.27
2017-12-29T05:23:22.128Z,72.36
2017-12-29T05:24:22.096Z,72.36
2017-12-29T05:25:21.955Z,71.70
2017-12-29T05:26:21.860Z,71.80
2017-12-29T05:27:21.770Z,71.98
2017-12-29T05:28:21.680Z,71.98
2017-12-29T05:29:21.594Z,71.22
2017-12-29T05:30:21.500Z,71.22
2017-12-29T05:31:21.413Z,71.60
2017-12-29T05:32:21.320Z,71.60
2017-12-29T05:33:21.232Z,71.22
2017-12-29T05:34:21.140Z,71.32
2017-12-29T05:35:21.053Z,71.22
2017-12-29T05:36:20.972Z,71.70
2017-12-29T05:37:20.882Z,71.80
2017-12-29T05:38:20.789Z,71.80
2017-12-29T05:39:20.693Z,72.45
2017-12-29T05:40:20.603Z,72.64
2017-12-29T05:41:20.514Z,72.17
2017-12-29T05:42:20.426Z,71.89
2017-12-29T05:43:20.334Z,71.51
2017-12-29T05:44:20.247Z,71.41
2017-12-29T05:45:20.160Z,71.80
2017-12-29T05:46:20.070Z,71.60
2017-12-29T05:47:19.980Z,71.80
2017-12-29T05:48:19.891Z,71.98
2017-12-29T05:49:19.800Z,71.80
2017-12-29T05:50:19.712Z,71.70
2017-12-29T05:51:19.617Z,71.51
2017-12-29T05:52:19.528Z,71.22
2017-12-29T05:53:19.454Z,71.32
2017-12-29T05:54:19.351Z,71.13
2017-12-29T05:55:19.282Z,71.22
2017-12-29T05:56:19.173Z,70.56
2017-12-29T05:57:19.081Z,71.00
2017-12-29T05:58:18.999Z,70.72
2017-12-29T05:59:18.929Z,70.72
2017-12-29T06:00:18.814Z,70.65
2017-12-29T06:01:18.729Z,70.53
2017-12-29T06:02:18.672Z,70.56
2017-12-29T06:03:18.540Z,70.75
2017-12-29T06:04:18.459Z,69.99
2017-12-29T06:05:18.360Z,70.56
2017-12-29T06:06:18.281Z,69.61
2017-12-29T06:07:18.180Z,69.33
2017-12-29T06:08:18.090Z,69.67
2017-12-29T06:09:18.007Z,69.42
2017-12-29T06:10:17.914Z,69.61
2017-12-29T06:11:17.829Z,69.80
2017-12-29T06:12:17.741Z,69.42
2017-12-29T06:13:17.643Z,68.57
2017-12-29T06:14:17.553Z,68.73
2017-12-29T06:15:17.458Z,69.38
2017-12-29T06:16:17.370Z,69.48
2017-12-29T06:17:17.285Z,69.38
2017-12-29T06:18:17.200Z,68.85
2017-12-29T06:19:17.105Z,69.57
2017-12-29T06:20:17.010Z,68.66
2017-12-29T06:21:16.936Z,69.04
2017-12-29T06:22:16.838Z,68.85
2017-12-29T06:23:16.745Z,68.76
2017-12-29T06:24:16.653Z,69.01
2017-12-29T06:25:16.557Z,68.91
2017-12-29T06:26:16.471Z,68.63
2017-12-29T06:27:16.387Z,68.82
2017-12-29T06:28:16.289Z,68.82
2017-12-29T06:29:16.206Z,68.91
2017-12-29T06:30:16.130Z,68.95
2017-12-29T06:31:16.023Z,68.85
2017-12-29T06:32:15.927Z,68.82
2017-12-29T06:33:15.841Z,68.06
2017-12-29T06:34:15.751Z,68.63
2017-12-29T06:35:15.677Z,68.73
2017-12-29T06:36:15.563Z,68.82
2017-12-29T06:37:15.482Z,69.01
2017-12-29T06:38:15.402Z,68.91
2017-12-29T06:39:15.303Z,68.95
2017-12-29T06:40:15.202Z,68.73
2017-12-29T06:41:15.119Z,68.73
2017-12-29T06:42:15.022Z,69.10
2017-12-29T06:43:14.944Z,68.82
2017-12-29T06:44:14.846Z,68.95
2017-12-29T06:45:14.780Z,68.85
2017-12-29T06:46:14.666Z,68.35
2017-12-29T06:47:14.591Z,68.85
2017-12-29T06:48:14.480Z,68.73
2017-12-29T06:49:14.396Z,69.20
2017-12-29T06:50:14.313Z,68.82
2017-12-29T06:51:14.209Z,69.10
2017-12-29T06:52:14.127Z,68.82
2017-12-29T06:53:14.032Z,69.29
2017-12-29T06:54:13.938Z,68.82
2017-12-29T06:55:13.844Z,69.38
2017-12-29T06:56:13.756Z,68.82
2017-12-29T06:57:13.665Z,69.29
2017-12-29T06:58:13.582Z,69.48
2017-12-29T06:59:13.490Z,69.57
2017-12-29T07:00:13.397Z,69.77
2017-12-29T07:01:13.313Z,69.77
2017-12-29T07:02:13.212Z,69.20
2017-12-29T07:03:13.121Z,69.48
2017-12-29T07:04:13.029Z,69.38
2017-12-29T07:05:12.939Z,69.29
2017-12-29T07:06:12.853Z,69.23
2017-12-29T07:07:12.760Z,69.71
2017-12-29T07:08:12.668Z,69.48
2017-12-29T07:09:12.580Z,69.48
2017-12-29T07:10:12.488Z,69.67
2017-12-29T07:11:12.405Z,70.05
2017-12-29T07:12:12.304Z,70.05
2017-12-29T07:13:12.217Z,70.90
2017-12-29T07:14:12.126Z,70.24
2017-12-29T07:15:12.042Z,70.90
2017-12-29T07:16:11.955Z,70.53
2017-12-29T07:17:11.852Z,69.86
2017-12-29T07:18:11.764Z,70.24
2017-12-29T07:19:11.672Z,69.86
2017-12-29T07:20:11.591Z,70.72
2017-12-29T07:21:11.506Z,71.00
2017-12-29T07:22:11.400Z,71.00
2017-12-29T07:23:11.310Z,70.90
2017-12-29T07:24:11.221Z,70.81
2017-12-29T07:25:11.130Z,70.90
2017-12-29T07:26:11.042Z,70.81
2017-12-29T07:27:10.947Z,71.19
2017-12-29T07:28:10.861Z,71.57
2017-12-29T07:29:10.769Z,71.57
2017-12-29T07:30:10.675Z,71.28
2017-12-29T07:31:10.587Z,71.19
2017-12-29T07:32:10.500Z,71.13
2017-12-29T07:33:10.402Z,71.28
2017-12-29T07:34:10.332Z,71.19
2017-12-29T07:35:10.232Z,71.19
2017-12-29T07:36:10.136Z,71.28
2017-12-29T07:37:10.042Z,72.42
2017-12-29T07:38:09.951Z,71.95
2017-12-29T07:39:09.869Z,71.95
2017-12-29T07:40:09.777Z,71.66
2017-12-29T07:41:09.681Z,72.04
2017-12-29T07:42:09.593Z,71.95
2017-12-29T07:43:09.511Z,72.33
2017-12-29T07:44:09.415Z,72.71
2017-12-29T07:45:09.327Z,72.99
2017-12-29T07:46:09.234Z,72.52
2017-12-29T07:47:09.135Z,72.52
2017-12-29T07:48:09.047Z,72.71
2017-12-29T07:49:08.967Z,72.99
2017-12-29T07:50:08.867Z,73.08
2017-12-29T07:51:08.773Z,73.08
2017-12-29T07:52:08.685Z,73.08
2017-12-29T07:53:08.594Z,73.75
2017-12-29T07:54:08.517Z,73.94
2017-12-29T07:55:08.410Z,73.18
2017-12-29T07:56:08.318Z,73.18
2017-12-29T07:57:08.226Z,73.50
2017-12-29T07:58:08.138Z,73.37
2017-12-29T07:59:08.047Z,73.18
2017-12-29T08:00:07.960Z,73.46
2017-12-29T08:01:07.883Z,73.56
2017-12-29T08:02:07.771Z,72.84
2017-12-29T08:03:07.679Z,73.41
2017-12-29T08:04:07.587Z,72.64
2017-12-29T08:05:07.503Z,73.08
2017-12-29T08:06:07.409Z,72.89
2017-12-29T08:07:07.322Z,73.56
2017-12-29T08:08:07.232Z,73.50
2017-12-29T08:09:07.137Z,73.22
2017-12-29T08:10:07.054Z,73.22
2017-12-29T08:11:06.961Z,73.22
2017-12-29T08:12:06.861Z,73.12
2017-12-29T08:13:06.781Z,72.84
2017-12-29T08:14:06.694Z,72.74
2017-12-29T08:15:06.592Z,72.64
2017-12-29T08:16:06.499Z,72.74
2017-12-29T08:17:06.420Z,72.08
2017-12-29T08:18:06.321Z,72.27
2017-12-29T08:19:06.233Z,72.11
2017-12-29T08:20:06.166Z,71.64
2017-12-29T08:21:06.078Z,70.88
2017-12-29T08:22:05.980Z,69.68
2017-12-29T08:23:05.880Z,68.54
2017-12-29T08:24:05.790Z,67.34
2017-12-29T08:25:05.697Z,65.76
2017-12-29T08:26:05.608Z,65.00
2017-12-29T08:27:05.528Z,63.99
2017-12-29T08:28:05.440Z,63.32
2017-12-29T08:29:05.356Z,62.56
2017-12-29T08:30:05.263Z,62.30
2017-12-29T08:31:05.186Z,61.16
2017-12-29T08:32:05.097Z,60.88
2017-12-29T08:33:05.007Z,60.21
2017-12-29T08:34:04.928Z,59.93
2017-12-29T08:35:04.846Z,59.67
2017-12-29T08:36:04.749Z,59.10
2017-12-29T08:37:04.673Z,58.91
2017-12-29T08:38:04.590Z,58.34
2017-12-29T08:39:04.499Z,58.06
2017-12-29T08:40:04.425Z,57.39
2017-12-29T08:41:04.394Z,56.82
2017-12-29T08:42:04.245Z,57.01
2017-12-29T08:43:04.167Z,57.29
2017-12-29T08:44:04.076Z,56.46
2017-12-29T08:45:03.991Z,56.24
2017-12-29T08:46:03.926Z,56.85
2017-12-29T08:47:03.828Z,55.90
2017-12-29T08:48:03.737Z,55.90
2017-12-29T08:49:03.655Z,55.07
2017-12-29T08:50:03.577Z,55.16
2017-12-29T08:51:03.505Z,54.11
2017-12-29T08:52:03.407Z,54.04
2017-12-29T08:53:03.334Z,53.76
2017-12-29T08:54:03.248Z,53.28
2017-12-29T08:55:03.179Z,52.55
2017-12-29T08:56:03.087Z,52.92
2017-12-29T08:57:02.996Z,52.71
2017-12-29T08:58:02.911Z,52.36
2017-12-29T08:59:02.861Z,51.50
2017-12-29T09:00:02.757Z,51.40
2017-12-29T09:01:02.683Z,51.47
2017-12-29T09:02:02.589Z,51.68
2017-12-29T09:03:02.506Z,51.12
2017-12-29T09:04:02.532Z,50.57
2017-12-29T09:05:02.343Z,50.76
2017-12-29T09:06:02.267Z,49.90
2017-12-29T09:07:02.188Z,49.62
2017-12-29T09:08:02.102Z,49.33
2017-12-29T09:09:02.022Z,49.13
2017-12-29T09:10:01.944Z,48.88
2017-12-29T09:11:01.860Z,48.39
2017-12-29T09:12:01.791Z,47.92
2017-12-29T09:13:01.694Z,48.49
2017-12-29T09:14:01.621Z,47.89
2017-12-29T09:15:01.531Z,47.82
2017-12-29T09:16:01.467Z,47.25
2017-12-29T09:17:01.372Z,46.75
2017-12-29T09:18:01.296Z,47.54
2017-12-29T09:19:01.214Z,47.52
2017-12-29T09:20:01.136Z,47.16
2017-12-29T09:21:01.068Z,46.68
2017-12-29T09:22:00.969Z,46.42
2017-12-29T09:23:00.952Z,45.65
2017-12-29T09:24:00.816Z,45.94
2017-12-29T09:25:00.727Z,45.06
2017-12-29T09:26:00.653Z,45.56
2017-12-29T09:27:00.568Z,45.08
2017-12-29T09:28:00.484Z,44.60
2017-12-29T09:29:00.404Z,44.70
2017-12-29T09:30:00.334Z,44.89
2017-12-29T09:31:00.250Z,44.98
2017-12-29T09:32:00.164Z,45.17
2017-12-29T09:33:00.085Z,44.62
2017-12-29T09:34:00.011Z,43.57
2017-12-29T09:34:59.939Z,44.24
2017-12-29T09:35:59.848Z,44.65
2017-12-29T09:36:59.766Z,44.45
2017-12-29T09:37:59.689Z,44.65
2017-12-29T09:38:59.635Z,45.03
2017-12-29T09:39:59.529Z,45.34
2017-12-29T09:40:59.469Z,44.95
2017-12-29T09:41:59.397Z,43.63
2017-12-29T09:42:59.305Z,43.06
2017-12-29T09:43:59.214Z,42.66
2017-12-29T09:44:59.137Z,42.68
2017-12-29T09:45:59.066Z,42.20
2017-12-29T09:46:58.984Z,41.65
2017-12-29T09:47:58.908Z,41.17
2017-12-29T09:48:58.823Z,41.07
2017-12-29T09:49:58.747Z,40.41
2017-12-29T09:50:58.668Z,40.81
2017-12-29T09:51:58.591Z,40.69
2017-12-29T09:52:58.529Z,40.78
2017-12-29T09:53:58.438Z,40.12
2017-12-29T09:54:58.366Z,39.47
2017-12-29T09:55:58.283Z,39.47
2017-12-29T09:56:58.209Z,38.98
2017-12-29T09:57:58.147Z,38.79
2017-12-29T09:58:58.060Z,38.70
2017-12-29T09:59:57.979Z,38.89
2017-12-29T10:00:57.904Z,38.32
2017-12-29T10:01:57.845Z,38.41
2017-12-29T10:02:57.752Z,38.79
2017-12-29T10:03:57.685Z,39.25
2017-12-29T10:04:57.600Z,38.79
2017-12-29T10:05:57.527Z,38.37
2017-12-29T10:06:57.450Z,38.74
2017-12-29T10:07:57.377Z,39.89
2017-12-29T10:08:57.298Z,39.62
2017-12-29T10:09:57.218Z,38.95
2017-12-29T10:10:57.201Z,38.76
2017-12-29T10:11:57.060Z,38.07
2017-12-29T10:12:56.985Z,38.76
2017-12-29T10:13:56.912Z,38.56
2017-12-29T10:14:56.829Z,38.28
2017-12-29T10:15:56.755Z,38.37
2017-12-29T10:16:56.679Z,38.47
2017-12-29T10:17:56.605Z,38.47
2017-12-29T10:18:56.536Z,38.28
2017-12-29T10:19:56.453Z,38.45
2017-12-29T10:20:56.376Z,39.03
2017-12-29T10:21:56.307Z,39.10
2017-12-29T10:22:56.215Z,39.67
2017-12-29T10:23:56.151Z,39.58
2017-12-29T10:24:56.064Z,39.22
2017-12-29T10:25:55.980Z,41.51
2017-12-29T10:26:55.907Z,40.65
2017-12-29T10:27:55.829Z,39.72
2017-12-29T10:28:55.750Z,39.83
2017-12-29T10:29:55.677Z,38.30
2017-12-29T10:30:55.604Z,38.01
2017-12-29T10:31:55.517Z,38.20
2017-12-29T10:32:55.452Z,37.72
2017-12-29T10:33:55.366Z,37.23
2017-12-29T10:34:55.301Z,37.78
2017-12-29T10:35:55.217Z,38.26
2017-12-29T10:36:55.142Z,38.09
2017-12-29T10:37:55.063Z,38.18
2017-12-29T10:38:54.981Z,37.80
2017-12-29T10:39:54.912Z,37.11
2017-12-29T10:40:54.864Z,38.34
2017-12-29T10:41:54.764Z,39.39
2017-12-29T10:42:54.677Z,38.81
2017-12-29T10:43:54.595Z,38.43
2017-12-29T10:44:54.520Z,37.74
2017-12-29T10:45:54.446Z,38.43
2017-12-29T10:46:54.357Z,38.14
2017-12-29T10:47:54.285Z,38.62
2017-12-29T10:48:54.203Z,38.24
2017-12-29T10:49:54.135Z,38.05
2017-12-29T10:50:54.101Z,37.84
2017-12-29T10:51:53.974Z,38.43
2017-12-29T10:52:53.934Z,38.22
2017-12-29T10:53:53.816Z,38.24
2017-12-29T10:54:53.734Z,38.26
2017-12-29T10:55:53.653Z,38.45
2017-12-29T10:56:53.577Z,38.24
2017-12-29T10:57:53.501Z,38.53
2017-12-29T10:58:53.422Z,38.07
2017-12-29T10:59:53.342Z,38.17
2017-12-29T11:00:53.268Z,37.61
2017-12-29T11:01:53.191Z,37.88
2017-12-29T11:02:53.111Z,38.26
2017-12-29T11:03:53.035Z,38.17
2017-12-29T11:04:52.958Z,37.21
2017-12-29T11:05:52.882Z,37.49
2017-12-29T11:06:52.802Z,37.40
2017-12-29T11:07:52.727Z,37.51
2017-12-29T11:08:52.651Z,37.21
2017-12-29T11:09:52.572Z,36.98
2017-12-29T11:10:52.497Z,38.34
2017-12-29T11:11:52.440Z,38.64
2017-12-29T11:12:52.348Z,38.47
2017-12-29T11:13:52.266Z,38.28
2017-12-29T11:14:52.198Z,37.41
2017-12-29T11:15:52.118Z,38.47
2017-12-29T11:16:52.045Z,37.90
2017-12-29T11:17:51.967Z,37.70
2017-12-29T11:18:51.901Z,37.59
2017-12-29T11:19:51.814Z,38.07
2017-12-29T11:20:51.738Z,38.53
2017-12-29T11:21:51.661Z,39.29
2017-12-29T11:22:51.583Z,39.48
2017-12-29T11:23:51.504Z,39.96
2017-12-29T11:24:51.427Z,39.65
2017-12-29T11:25:51.355Z,40.97
2017-12-29T11:26:51.274Z,41.35
2017-12-29T11:27:51.194Z,41.35
2017-12-29T11:28:51.120Z,41.16
2017-12-29T11:29:51.041Z,41.52
2017-12-29T11:30:50.999Z,42.69
2017-12-29T11:31:50.880Z,42.40
2017-12-29T11:32:50.799Z,42.19
2017-12-29T11:33:50.727Z,42.79
2017-12-29T11:34:50.636Z,42.40
2017-12-29T11:35:50.566Z,41.93
2017-12-29T11:36:50.482Z,41.93
2017-12-29T11:37:50.411Z,42.48
2017-12-29T11:38:50.355Z,42.50
2017-12-29T11:39:50.239Z,42.50
2017-12-29T11:40:50.163Z,42.97
2017-12-29T11:41:50.074Z,43.24
2017-12-29T11:42:49.993Z,44.84
2017-12-29T11:43:49.919Z,45.15
2017-12-29T11:44:49.833Z,44.38
2017-12-29T11:45:49.753Z,44.37
2017-12-29T11:46:49.668Z,44.53
2017-12-29T11:47:49.586Z,45.13
2017-12-29T11:48:49.506Z,44.94
2017-12-29T11:49:49.424Z,44.56
2017-12-29T11:50:49.340Z,44.27
2017-12-29T11:51:49.258Z,44.56
2017-12-29T11:52:49.176Z,44.67
2017-12-29T11:53:49.102Z,44.65
2017-12-29T11:54:49.011Z,45.03
2017-12-29T11:55:48.929Z,45.03
2017-12-29T11:56:48.843Z,45.25
2017-12-29T11:57:48.762Z,45.13
2017-12-29T11:58:48.683Z,44.94
2017-12-29T11:59:48.603Z,44.58
2017-12-29T12:00:48.513Z,44.56
2017-12-29T12:01:48.433Z,44.82
2017-12-29T12:02:48.345Z,44.53
2017-12-29T12:03:48.262Z,44.63
2017-12-29T12:04:48.177Z,44.70
2017-12-29T12:05:48.101Z,44.82
2017-12-29T12:06:48.008Z,44.73
2017-12-29T12:07:47.931Z,44.13
2017-12-29T12:08:47.851Z,44.59
2017-12-29T12:09:47.761Z,44.78
2017-12-29T12:10:47.679Z,44.78
2017-12-29T12:11:47.592Z,45.44
2017-12-29T12:12:47.512Z,45.54
2017-12-29T12:13:47.412Z,46.28
2017-12-29T12:14:47.329Z,46.47
2017-12-29T12:15:47.245Z,47.04
2017-12-29T12:16:47.156Z,47.52
2017-12-29T12:17:47.069Z,46.75
2017-12-29T12:18:46.989Z,46.58
2017-12-29T12:19:46.913Z,46.15
2017-12-29T12:20:46.819Z,47.23
2017-12-29T12:21:46.728Z,47.44
2017-12-29T12:22:46.636Z,46.66
2017-12-29T12:23:46.557Z,46.83
2017-12-29T12:24:46.467Z,48.16
2017-12-29T12:25:46.378Z,47.71
2017-12-29T12:26:46.298Z,47.78
2017-12-29T12:27:46.206Z,48.82
2017-12-29T12:28:46.127Z,48.44
2017-12-29T12:29:46.029Z,48.35
2017-12-29T12:30:45.943Z,48.06
2017-12-29T12:31:45.855Z,48.16
2017-12-29T12:32:45.769Z,48.63
2017-12-29T12:33:45.686Z,48.44
2017-12-29T12:34:45.617Z,48.71
2017-12-29T12:35:45.505Z,49.68
2017-12-29T12:36:45.420Z,48.73
2017-12-29T12:37:45.336Z,49.27
2017-12-29T12:38:45.248Z,49.27
2017-12-29T12:39:45.161Z,49.40
2017-12-29T12:40:45.071Z,48.80
2017-12-29T12:41:44.979Z,49.56
2017-12-29T12:42:44.892Z,50.32
2017-12-29T12:43:44.824Z,49.77
2017-12-29T12:44:44.726Z,48.80
2017-12-29T12:45:44.639Z,50.01
2017-12-29T12:46:44.544Z,50.79
2017-12-29T12:47:44.460Z,50.79
2017-12-29T12:48:44.375Z,50.32
2017-12-29T12:49:44.280Z,50.60
2017-12-29T12:50:44.192Z,49.77
2017-12-29T12:51:44.109Z,49.77